Time;durP1;ratioP1;P1;durP2;ratioP2;P2;SDS_P1;SDS_P2;PMS_P1;PMS_P2;Temp;Humidity;BMP_temperature;BMP_pressure;BME280_temperature;BME280_humidity;BME280_pressure;Samples;Min_cycle;Max_cycle;Signal;HPM_P1;HPM_P2
2020/12/06 00:02:26;;;;;;;;;;;0.10;99.90;;;;;;5096772;28;20305;-82
2020/12/06 00:05:06;;;;;;;;;;;0.10;99.90;;;;;;5097649;28;19915;-82
2020/12/06 00:07:38;;;;;;;;;;;0.20;99.90;;;;;;5096094;28;20373;-82
2020/12/06 00:10:07;;;;;;;;;;;0.20;99.90;;;;;;5095655;28;19908;-83
2020/12/06 00:12:36;;;;;;;;;;;0.20;99.90;;;;;;5115036;28;19920;-82
2020/12/06 00:15:05;;;;;;;;;;;0.20;99.90;;;;;;5099938;28;19908;-82
2020/12/06 00:17:44;;;;;;;;;;;0.20;99.90;;;;;;5100096;28;19908;-82
2020/12/06 00:20:21;;;;;;;;;;;0.20;99.90;;;;;;5099554;28;19958;-82
2020/12/06 00:22:51;;;;;;;;;;;0.30;99.90;;;;;;5099433;28;19911;-82
2020/12/06 00:25:32;;;;;;;;;;;0.30;99.90;;;;;;5099665;28;19916;-82
2020/12/06 00:27:58;;;;;;;;;;;0.30;99.90;;;;;;5117527;28;20363;-82
2020/12/06 00:30:26;;;;;;;;;;;0.30;99.90;;;;;;5099768;28;19941;-82
2020/12/06 00:32:57;;;;;;;;;;;0.30;99.90;;;;;;5114677;28;20379;-82
2020/12/06 00:35:29;;;;;;;;;;;0.30;99.90;;;;;;5098880;28;19919;-82
2020/12/06 00:38:12;;;;;;;;;;;0.30;99.90;;;;;;5115291;28;19908;-82
2020/12/06 00:40:46;;;;;;;;;;;0.30;99.90;;;;;;5098958;28;20314;-82
2020/12/06 00:43:17;;;;;;;;;;;0.30;99.90;;;;;;5098847;28;19950;-82
2020/12/06 00:45:47;;;;;;;;;;;0.20;99.90;;;;;;5116958;28;19908;-82
2020/12/06 00:48:19;;;;;;;;;;;0.20;99.90;;;;;;5074115;28;19916;-82
2020/12/06 00:50:50;;;;;;;;;;;0.20;99.90;;;;;;5073785;28;19909;-82
2020/12/06 00:53:22;;;;;;;;;;;0.20;99.90;;;;;;5074078;28;19908;-82
2020/12/06 00:55:53;;;;;;;;;;;0.20;99.90;;;;;;5074628;28;20313;-82
2020/12/06 00:58:29;;;;;;;;;;;0.10;99.90;;;;;;5074189;28;19908;-82
2020/12/06 01:01:00;;;;;;;;;;;0.20;99.90;;;;;;5057173;28;19909;-82
2020/12/06 01:03:32;;;;;;;;;;;0.20;99.90;;;;;;5074063;28;20008;-81
2020/12/06 01:06:13;;;;;;;;;;;0.20;99.90;;;;;;5074513;28;19909;-82
2020/12/06 01:08:44;;;;;;;;;;;0.20;99.90;;;;;;5057030;28;20306;-81
2020/12/06 01:11:21;;;;;;;;;;;0.20;99.90;;;;;;5073884;28;19927;-83
2020/12/06 01:13:53;;;;;;;;;;;0.30;99.90;;;;;;5056943;28;19909;-81
2020/12/06 01:16:22;;;;;;;;;;;0.30;99.90;;;;;;5056947;28;19912;-82
2020/12/06 01:18:55;;;;;;;;;;;0.30;99.90;;;;;;5070616;28;20364;-84
2020/12/06 01:21:31;;;;;;;;;;;0.30;99.90;;;;;;5097736;28;19908;-82
2020/12/06 01:23:58;;;;;;;;;;;0.30;99.90;;;;;;5098272;28;19912;-81
2020/12/06 01:26:25;;;;;;;;;;;0.30;99.90;;;;;;5098353;28;19908;-81
2020/12/06 01:28:53;;;;;;;;;;;0.30;99.90;;;;;;5116300;28;19960;-81
2020/12/06 01:31:21;;;;;;;;;;;0.30;99.90;;;;;;5097802;28;19908;-81
2020/12/06 01:33:50;;;;;;;;;;;0.20;99.90;;;;;;5097785;28;19908;-81
2020/12/06 01:36:18;;;;;;;;;;;0.30;99.90;;;;;;5094586;28;19912;-82
2020/12/06 01:38:47;;;;;;;;;;;0.20;99.90;;;;;;5098204;28;19908;-83
2020/12/06 01:41:20;;;;;;;;;;;0.20;99.90;;;;;;5094761;28;19912;-82
2020/12/06 01:44:20;;;;;;;;;;;0.10;99.90;;;;;;5097493;28;19958;-82
2020/12/06 01:46:55;;;;;;;;;;;0.00;99.90;;;;;;5115686;28;19930;-81
2020/12/06 01:49:37;;;;;;;;;;;0.00;99.90;;;;;;5097770;28;19915;-81
2020/12/06 01:52:06;;;;;;;;;;;0.00;99.90;;;;;;5115782;28;19908;-81
2020/12/06 01:54:43;;;;;;;;;;;-0.10;99.90;;;;;;5097543;28;19908;-81
2020/12/06 01:57:11;;;;;;;;;;;0.00;99.90;;;;;;5094422;28;20349;-82
2020/12/06 01:59:39;;;;;;;;;;;0.00;99.90;;;;;;5115830;28;19958;-81
2020/12/06 02:02:26;;;;;;;;;;;0.00;99.90;;;;;;5115117;28;19912;-82
2020/12/06 02:05:11;;;;;;;;;;;0.00;99.90;;;;;;5115410;28;19994;-82
2020/12/06 02:07:41;;;;;;;;;;;0.10;99.90;;;;;;5097740;28;20268;-82
2020/12/06 02:10:15;;;;;;;;;;;0.10;99.90;;;;;;5097878;28;20002;-82
2020/12/06 02:12:45;;;;;;;;;;;0.10;99.90;;;;;;5097144;28;19926;-83
2020/12/06 02:15:14;;;;;;;;;;;0.10;99.90;;;;;;5096972;28;19914;-82
2020/12/06 02:17:49;;;;;;;;;;;0.20;99.90;;;;;;5115354;28;19908;-84
2020/12/06 02:20:22;;;;;;;;;;;0.20;99.90;;;;;;5097114;28;19912;-83
2020/12/06 02:22:54;;;;;;;;;;;0.20;99.90;;;;;;5097255;28;19912;-81
2020/12/06 02:25:20;;;;;;;;;;;0.20;99.90;;;;;;5097079;28;19919;-83
2020/12/06 02:27:50;;;;;;;;;;;0.30;99.90;;;;;;5115173;28;19915;-82
2020/12/06 02:30:21;;;;;;;;;;;0.30;99.90;;;;;;5115297;28;19908;-82
2020/12/06 02:32:54;;;;;;;;;;;0.40;99.90;;;;;;5096971;28;19908;-82
2020/12/06 02:35:20;;;;;;;;;;;0.40;99.90;;;;;;5097053;28;19915;-82
2020/12/06 02:37:46;;;;;;;;;;;0.40;99.90;;;;;;5093553;28;19912;-82
2020/12/06 02:40:14;;;;;;;;;;;0.40;99.90;;;;;;5096393;28;19915;-82
2020/12/06 02:42:45;;;;;;;;;;;0.40;99.90;;;;;;5096861;28;20333;-82
2020/12/06 02:45:17;;;;;;;;;;;0.40;99.90;;;;;;5096629;28;20433;-82
2020/12/06 02:47:46;;;;;;;;;;;0.40;99.90;;;;;;5114691;28;19915;-82
2020/12/06 02:50:14;;;;;;;;;;;0.40;99.90;;;;;;5096474;28;20343;-82
2020/12/06 02:52:42;;;;;;;;;;;0.40;99.90;;;;;;5096396;28;19907;-82
2020/12/06 02:55:10;;;;;;;;;;;0.40;99.90;;;;;;5096346;28;20318;-82
2020/12/06 02:57:41;;;;;;;;;;;0.40;99.90;;;;;;5096367;28;19908;-82
2020/12/06 03:00:12;;;;;;;;;;;0.40;99.90;;;;;;5079851;28;20364;-82
2020/12/06 03:02:41;;;;;;;;;;;0.30;99.90;;;;;;5111745;28;20352;-83
2020/12/06 03:05:09;;;;;;;;;;;0.30;99.90;;;;;;5096207;28;19956;-84
2020/12/06 03:07:40;;;;;;;;;;;0.30;99.90;;;;;;5114266;28;19916;-82
2020/12/06 03:10:09;;;;;;;;;;;0.30;99.90;;;;;;5096194;28;19908;-82
2020/12/06 03:12:43;;;;;;;;;;;0.30;99.90;;;;;;5095946;28;19980;-82
2020/12/06 03:15:11;;;;;;;;;;;0.20;99.90;;;;;;5095001;28;19908;-82
2020/12/06 03:17:40;;;;;;;;;;;0.30;99.90;;;;;;5093338;28;19912;-82
2020/12/06 03:20:16;;;;;;;;;;;0.30;99.90;;;;;;5095514;28;19994;-82
2020/12/06 03:22:44;;;;;;;;;;;0.20;99.90;;;;;;5034682;28;19920;-82
2020/12/06 03:25:16;;;;;;;;;;;0.30;99.90;;;;;;5048561;28;19913;-82
2020/12/06 03:27:44;;;;;;;;;;;0.30;99.90;;;;;;5034817;28;20012;-82
2020/12/06 03:30:12;;;;;;;;;;;0.30;99.90;;;;;;5034747;28;19963;-82
2020/12/06 03:32:49;;;;;;;;;;;0.30;99.90;;;;;;5034582;28;20003;-82
2020/12/06 03:35:23;;;;;;;;;;;0.30;99.90;;;;;;5051240;28;19998;-82
2020/12/06 03:37:58;;;;;;;;;;;0.30;99.90;;;;;;5051214;28;19912;-82
2020/12/06 03:40:31;;;;;;;;;;;0.30;99.90;;;;;;5051723;28;19916;-82
2020/12/06 03:43:08;;;;;;;;;;;0.30;99.90;;;;;;5032357;28;19915;-83
2020/12/06 03:45:37;;;;;;;;;;;0.40;99.90;;;;;;5035291;28;19913;-82
2020/12/06 03:48:11;;;;;;;;;;;0.40;99.90;;;;;;5035019;28;19924;-82
2020/12/06 03:50:40;;;;;;;;;;;0.40;99.90;;;;;;5035000;28;19909;-82
2020/12/06 03:53:09;;;;;;;;;;;0.50;99.90;;;;;;5047932;28;19961;-82
2020/12/06 03:55:37;;;;;;;;;;;0.60;99.90;;;;;;5095750;28;19914;-82
2020/12/06 03:58:08;;;;;;;;;;;0.60;99.90;;;;;;5095765;28;19908;-82
2020/12/06 04:00:41;;;;;;;;;;;0.60;99.90;;;;;;5092989;28;20365;-82
2020/12/06 04:03:12;;;;;;;;;;;0.70;99.90;;;;;;5095799;28;19915;-82
2020/12/06 04:05:51;;;;;;;;;;;0.70;99.90;;;;;;5113819;28;20353;-82
2020/12/06 04:08:40;;;;;;;;;;;0.70;99.90;;;;;;5095460;28;20284;-82
2020/12/06 04:11:10;;;;;;;;;;;0.80;99.90;;;;;;5091293;28;20070;-83
2020/12/06 04:13:41;;;;;;;;;;;0.80;99.90;;;;;;5092347;28;19908;-82
2020/12/06 04:16:18;;;;;;;;;;;0.80;99.90;;;;;;5092271;28;19949;-82
2020/12/06 04:18:55;;;;;;;;;;;0.90;99.90;;;;;;5092047;28;19908;-82
2020/12/06 04:21:29;;;;;;;;;;;0.90;99.90;;;;;;5092211;28;19908;-82
2020/12/06 04:24:17;;;;;;;;;;;1.00;99.90;;;;;;5093272;28;20361;-82
2020/12/06 04:26:48;;;;;;;;;;;1.10;99.90;;;;;;5096046;28;19908;-82
2020/12/06 04:29:16;;;;;;;;;;;1.10;99.90;;;;;;5095810;28;20377;-81
2020/12/06 04:31:45;;;;;;;;;;;1.20;99.90;;;;;;5097472;28;19955;-82
2020/12/06 04:34:16;;;;;;;;;;;1.20;99.90;;;;;;5095916;28;20349;-82
2020/12/06 04:36:45;;;;;;;;;;;1.20;99.90;;;;;;5099099;28;19908;-81
2020/12/06 04:39:16;;;;;;;;;;;1.20;99.90;;;;;;5095563;28;19908;-82
2020/12/06 04:41:42;;;;;;;;;;;1.20;99.90;;;;;;5096075;28;19994;-82
2020/12/06 04:44:08;;;;;;;;;;;1.20;99.90;;;;;;5095748;28;20007;-82
2020/12/06 04:46:46;;;;;;;;;;;1.20;99.90;;;;;;5096826;28;19915;-81
2020/12/06 04:49:27;;;;;;;;;;;1.20;99.90;;;;;;5095470;28;19916;-82
2020/12/06 04:52:02;;;;;;;;;;;1.20;99.90;;;;;;5095121;28;19908;-81
2020/12/06 04:54:33;;;;;;;;;;;1.20;99.90;;;;;;5095539;28;20356;-82
2020/12/06 04:57:05;;;;;;;;;;;1.20;99.90;;;;;;5095172;28;19908;-82
2020/12/06 04:59:37;;;;;;;;;;;1.20;99.90;;;;;;5095231;28;19915;-82
2020/12/06 05:02:07;;;;;;;;;;;1.20;99.90;;;;;;5096493;28;19915;-82
2020/12/06 05:04:33;;;;;;;;;;;1.30;99.90;;;;;;5095317;28;19958;-81
2020/12/06 05:07:11;;;;;;;;;;;1.30;99.90;;;;;;5092581;28;19912;-81
2020/12/06 05:09:42;;;;;;;;;;;1.40;99.90;;;;;;5096059;28;19908;-81
2020/12/06 05:12:14;;;;;;;;;;;1.40;99.90;;;;;;5100303;28;19983;-81
2020/12/06 05:14:49;;;;;;;;;;;1.40;99.90;;;;;;5113247;28;19916;-82
2020/12/06 05:17:19;;;;;;;;;;;1.40;99.90;;;;;;5096034;28;20254;-82
2020/12/06 05:19:53;;;;;;;;;;;1.40;99.90;;;;;;5095979;28;19913;-82
2020/12/06 05:22:27;;;;;;;;;;;1.40;99.90;;;;;;5095172;28;19955;-83
2020/12/06 05:24:52;;;;;;;;;;;1.30;99.90;;;;;;5094776;28;20325;-82
2020/12/06 05:27:20;;;;;;;;;;;1.30;99.90;;;;;;5095549;28;19963;-82
2020/12/06 05:29:51;;;;;;;;;;;1.30;99.90;;;;;;5095224;28;20357;-82
2020/12/06 05:32:22;;;;;;;;;;;1.30;99.90;;;;;;5097194;28;19994;-82
2020/12/06 05:34:53;;;;;;;;;;;1.20;99.90;;;;;;5092243;28;19937;-82
2020/12/06 05:37:30;;;;;;;;;;;1.20;99.90;;;;;;5095352;28;19915;-82
2020/12/06 05:40:01;;;;;;;;;;;1.20;99.90;;;;;;5095749;28;19938;-82
2020/12/06 05:42:34;;;;;;;;;;;1.20;99.90;;;;;;5095049;28;19908;-83
2020/12/06 05:45:12;;;;;;;;;;;1.20;99.90;;;;;;5095017;28;19908;-82
2020/12/06 05:47:41;;;;;;;;;;;1.20;99.90;;;;;;5094463;28;19917;-83
2020/12/06 05:50:21;;;;;;;;;;;1.20;99.90;;;;;;5095243;28;19995;-83
2020/12/06 05:52:46;;;;;;;;;;;1.20;99.90;;;;;;5091124;28;19912;-82
2020/12/06 05:55:17;;;;;;;;;;;1.20;99.90;;;;;;5095724;28;19998;-82
2020/12/06 05:57:43;;;;;;;;;;;1.20;99.90;;;;;;5094232;28;19915;-82
2020/12/06 06:00:13;;;;;;;;;;;1.20;99.90;;;;;;5094129;28;20416;-82
2020/12/06 06:02:44;;;;;;;;;;;1.20;99.90;;;;;;5093941;28;19914;-82
2020/12/06 06:05:16;;;;;;;;;;;1.30;99.90;;;;;;5095161;28;20353;-82
2020/12/06 06:07:42;;;;;;;;;;;1.30;99.90;;;;;;5095103;28;20011;-82
2020/12/06 06:10:14;;;;;;;;;;;1.30;99.90;;;;;;5095145;28;19950;-82
2020/12/06 06:12:45;;;;;;;;;;;1.30;99.90;;;;;;5093536;28;19927;-82
2020/12/06 06:15:13;;;;;;;;;;;1.30;99.90;;;;;;5093904;28;19908;-82
2020/12/06 06:17:53;;;;;;;;;;;1.40;99.90;;;;;;5093598;28;19908;-83
2020/12/06 06:20:28;;;;;;;;;;;1.40;99.90;;;;;;5094051;28;20283;-82
2020/12/06 06:22:56;;;;;;;;;;;1.40;99.90;;;;;;5093458;28;19908;-82
2020/12/06 06:25:27;;;;;;;;;;;1.50;99.90;;;;;;5094891;28;19909;-83
2020/12/06 06:27:57;;;;;;;;;;;1.50;99.90;;;;;;5093406;28;19969;-82
2020/12/06 06:30:28;;;;;;;;;;;1.50;99.90;;;;;;5088049;28;19909;-82
2020/12/06 06:32:54;;;;;;;;;;;1.60;99.90;;;;;;5094832;28;19943;-82
2020/12/06 06:35:22;;;;;;;;;;;1.60;99.90;;;;;;5093090;28;19958;-83
2020/12/06 06:37:56;;;;;;;;;;;1.60;99.90;;;;;;5094693;28;19908;-82
2020/12/06 06:40:32;;;;;;;;;;;1.60;99.90;;;;;;5094055;28;20364;-82
2020/12/06 06:43:10;;;;;;;;;;;1.70;99.90;;;;;;5077083;28;19912;-82
2020/12/06 06:46:05;;;;;;;;;;;1.70;99.90;;;;;;5093306;28;19915;-82
2020/12/06 06:48:33;;;;;;;;;;;1.70;99.90;;;;;;5092453;28;19947;-82
2020/12/06 06:51:03;;;;;;;;;;;1.80;99.90;;;;;;5089943;28;19912;-82
2020/12/06 06:53:28;;;;;;;;;;;1.80;99.90;;;;;;5092870;28;20347;-82
2020/12/06 06:56:10;;;;;;;;;;;1.80;99.90;;;;;;5093363;28;19943;-82
2020/12/06 06:58:40;;;;;;;;;;;1.80;99.90;;;;;;5093064;28;19916;-82
2020/12/06 07:01:22;;;;;;;;;;;1.80;99.90;;;;;;5093694;28;19951;-82
2020/12/06 07:04:08;;;;;;;;;;;1.90;99.90;;;;;;5094589;28;20003;-82
2020/12/06 07:06:51;;;;;;;;;;;1.80;99.90;;;;;;5094307;28;19933;-82
2020/12/06 07:09:24;;;;;;;;;;;1.80;99.90;;;;;;5092764;28;19916;-82
2020/12/06 07:11:58;;;;;;;;;;;1.80;99.90;;;;;;5088877;28;20239;-83
2020/12/06 07:14:35;;;;;;;;;;;1.80;99.90;;;;;;5093349;28;19916;-83
2020/12/06 07:17:07;;;;;;;;;;;1.80;99.90;;;;;;5094527;28;19930;-82
2020/12/06 07:19:34;;;;;;;;;;;1.80;99.90;;;;;;5094649;28;20003;-82
2020/12/06 07:22:02;;;;;;;;;;;1.80;99.90;;;;;;5083935;28;19957;-83
2020/12/06 07:24:31;;;;;;;;;;;1.90;99.90;;;;;;5092691;28;19915;-83
2020/12/06 07:27:00;;;;;;;;;;;1.80;99.90;;;;;;5092786;28;19908;-83
2020/12/06 07:29:30;;;;;;;;;;;1.80;99.90;;;;;;5093181;28;19962;-82
2020/12/06 07:32:01;;;;;;;;;;;1.80;99.90;;;;;;5093885;28;19919;-82
2020/12/06 07:34:26;;;;;;;;;;;1.80;99.90;;;;;;5094111;28;20011;-83
2020/12/06 07:36:58;;;;;;;;;;;1.80;99.90;;;;;;5089392;28;19955;-82
2020/12/06 07:39:32;;;;;;;;;;;1.80;99.90;;;;;;5093302;28;19935;-82
2020/12/06 07:42:21;;;;;;;;;;;1.80;99.90;;;;;;5093349;28;19912;-82
2020/12/06 07:44:53;;;;;;;;;;;1.80;99.90;;;;;;5092376;28;19916;-82
2020/12/06 07:47:25;;;;;;;;;;;1.80;99.90;;;;;;5089804;28;20343;-82
2020/12/06 07:49:54;;;;;;;;;;;1.80;99.90;;;;;;5088737;28;19919;-82
2020/12/06 07:52:41;;;;;;;;;;;1.80;99.90;;;;;;5073781;28;19913;-82
2020/12/06 07:55:13;;;;;;;;;;;1.90;99.90;;;;;;5072730;28;20257;-82
2020/12/06 07:57:39;;;;;;;;;;;1.90;99.90;;;;;;5072025;28;19916;-82
2020/12/06 08:00:27;;;;;;;;;;;1.90;99.90;;;;;;5073279;28;19909;-82
2020/12/06 08:03:03;;;;;;;;;;;1.90;99.90;;;;;;5075027;28;19908;-82
2020/12/06 08:05:40;;;;;;;;;;;1.90;99.90;;;;;;5075868;28;19909;-82
2020/12/06 08:08:09;;;;;;;;;;;1.90;99.90;;;;;;5075327;28;19931;-82
2020/12/06 08:10:48;;;;;;;;;;;2.00;99.90;;;;;;5085347;28;19909;-81
2020/12/06 08:13:18;;;;;;;;;;;2.00;99.90;;;;;;5084653;28;19927;-82
2020/12/06 08:16:08;;;;;;;;;;;2.00;99.90;;;;;;5084068;28;19912;-82
2020/12/06 08:21:47;;;;;;;;;;;2.10;99.90;;;;;;5026584;28;20001;-82
2020/12/06 08:24:23;;;;;;;;;;;2.10;99.90;;;;;;5086635;28;19916;-83
2020/12/06 08:26:55;;;;;;;;;;;2.10;99.90;;;;;;5095267;28;19955;-82
2020/12/06 08:29:41;;;;;;;;;;;2.20;99.90;;;;;;5095996;28;19916;-82
2020/12/06 08:32:18;;;;;;;;;;;2.20;99.90;;;;;;5094912;28;19923;-82
2020/12/06 08:34:54;;;;;;;;;;;2.20;99.90;;;;;;5096649;28;19909;-81
2020/12/06 08:37:22;;;;;;;;;;;2.20;99.90;;;;;;5094941;28;19916;-82
2020/12/06 08:39:48;;;;;;;;;;;2.20;99.90;;;;;;5074148;28;19909;-82
2020/12/06 08:42:19;;;;;;;;;;;2.20;99.90;;;;;;5057335;28;19957;-82
2020/12/06 08:45:07;;;;;;;;;;;2.20;99.90;;;;;;5057395;28;20028;-82
2020/12/06 08:47:44;;;;;;;;;;;2.30;99.90;;;;;;5057220;28;19920;-82
2020/12/06 08:50:13;;;;;;;;;;;2.30;99.90;;;;;;5057029;28;19969;-82
2020/12/06 08:52:41;;;;;;;;;;;2.40;99.90;;;;;;5057059;28;19915;-82
2020/12/06 08:55:33;;;;;;;;;;;2.40;99.90;;;;;;5074276;28;19961;-82
2020/12/06 08:58:49;;;;;;;;;;;2.40;99.90;;;;;;5072553;28;20395;-83
2020/12/06 09:01:15;;;;;;;;;;;2.40;99.90;;;;;;5076268;28;19913;-83
2020/12/06 09:03:46;;;;;;;;;;;2.50;99.90;;;;;;5041617;28;20367;-83
2020/12/06 09:06:37;;;;;;;;;;;2.50;99.90;;;;;;5075829;28;19916;-83
2020/12/06 09:09:03;;;;;;;;;;;2.60;99.90;;;;;;5075896;28;19962;-82
2020/12/06 09:11:34;;;;;;;;;;;2.70;99.90;;;;;;5079943;28;19923;-83
2020/12/06 09:14:04;;;;;;;;;;;2.80;99.90;;;;;;5097072;28;19930;-82
2020/12/06 09:16:48;;;;;;;;;;;2.90;99.90;;;;;;5116482;28;19974;-82
2020/12/06 09:19:16;;;;;;;;;;;3.00;99.90;;;;;;5091865;28;20272;-81
2020/12/06 09:21:45;;;;;;;;;;;3.10;99.90;;;;;;5098426;28;20276;-82
2020/12/06 09:24:15;;;;;;;;;;;3.10;99.90;;;;;;5115981;28;20007;-82
2020/12/06 09:26:47;;;;;;;;;;;3.20;99.90;;;;;;5097905;28;20364;-82
2020/12/06 09:29:15;;;;;;;;;;;3.20;99.90;;;;;;5100709;28;19915;-81
2020/12/06 09:31:46;;;;;;;;;;;3.30;99.90;;;;;;5098760;28;20384;-82
2020/12/06 09:34:12;;;;;;;;;;;3.40;99.90;;;;;;5098164;28;19907;-82
2020/12/06 09:36:51;;;;;;;;;;;3.50;99.90;;;;;;5116012;28;20269;-82
2020/12/06 09:39:27;;;;;;;;;;;3.60;99.90;;;;;;5097470;28;19907;-82
2020/12/06 09:42:11;;;;;;;;;;;3.80;99.90;;;;;;5097653;28;20276;-82
2020/12/06 09:44:37;;;;;;;;;;;3.90;99.90;;;;;;5097620;28;20264;-81
2020/12/06 09:47:05;;;;;;;;;;;4.00;99.90;;;;;;5097378;28;19908;-81
2020/12/06 09:49:33;;;;;;;;;;;4.10;99.90;;;;;;5097553;28;19908;-82
2020/12/06 09:52:06;;;;;;;;;;;4.30;99.90;;;;;;5116019;28;19912;-84
2020/12/06 09:54:31;;;;;;;;;;;4.40;99.90;;;;;;5096896;28;19908;-83
2020/12/06 09:57:02;;;;;;;;;;;4.50;99.90;;;;;;5097494;28;19961;-83
2020/12/06 09:59:40;;;;;;;;;;;4.70;99.90;;;;;;5088275;28;19916;-82
2020/12/06 10:02:11;;;;;;;;;;;4.80;99.90;;;;;;5097283;28;19911;-82
2020/12/06 10:04:37;;;;;;;;;;;5.10;99.90;;;;;;5097387;28;19908;-82
2020/12/06 10:07:13;;;;;;;;;;;5.20;99.90;;;;;;5115200;28;19907;-83
2020/12/06 10:09:44;;;;;;;;;;;5.40;99.90;;;;;;5097698;28;19907;-81
2020/12/06 10:12:16;;;;;;;;;;;5.50;99.90;;;;;;5087197;28;19930;-82
2020/12/06 10:14:41;;;;;;;;;;;5.60;99.90;;;;;;5093760;28;19908;-81
2020/12/06 10:17:10;;;;;;;;;;;5.80;99.90;;;;;;5080307;28;20434;-82
2020/12/06 10:19:36;;;;;;;;;;;6.10;99.90;;;;;;5074336;28;19923;-84
2020/12/06 10:22:12;;;;;;;;;;;6.30;99.90;;;;;;5073212;28;19908;-82
2020/12/06 10:24:53;;;;;;;;;;;6.30;99.90;;;;;;5073472;28;19955;-81
2020/12/06 10:27:38;;;;;;;;;;;6.30;99.90;;;;;;5074560;28;20288;-83
2020/12/06 10:30:07;;;;;;;;;;;6.30;99.90;;;;;;5079934;28;19979;-83
2020/12/06 10:32:43;;;;;;;;;;;6.10;99.90;;;;;;5081784;28;20405;-84
2020/12/06 10:35:13;;;;;;;;;;;6.10;99.90;;;;;;5084002;28;19912;-83
2020/12/06 10:37:41;;;;;;;;;;;6.10;99.90;;;;;;5090367;28;20372;-83
2020/12/06 10:40:16;;;;;;;;;;;6.10;99.90;;;;;;5093119;28;19908;-82
2020/12/06 10:42:45;;;;;;;;;;;6.10;99.90;;;;;;5091755;28;20755;-83
2020/12/06 10:45:21;;;;;;;;;;;6.20;99.70;;;;;;5095132;28;19908;-82
2020/12/06 10:48:02;;;;;;;;;;;6.20;99.40;;;;;;5097114;28;19920;-83
2020/12/06 10:50:28;;;;;;;;;;;6.40;99.50;;;;;;5094961;28;19938;-83
2020/12/06 10:52:59;;;;;;;;;;;6.60;98.80;;;;;;5092889;28;19908;-84
2020/12/06 10:55:35;;;;;;;;;;;6.80;98.60;;;;;;5090506;28;19912;-83
2020/12/06 10:58:16;;;;;;;;;;;;;;;;;;;;;
2020/12/06 11:00:48;;;;;;;;;;;7.30;97.90;;;;;;5095049;28;19908;-83
2020/12/06 11:03:23;;;;;;;;;;;7.50;97.10;;;;;;5092744;28;20369;-84
2020/12/06 11:05:51;;;;;;;;;;;7.70;96.80;;;;;;5093631;28;19923;-84
2020/12/06 11:08:28;;;;;;;;;;;7.80;96.40;;;;;;5090263;28;20026;-83
2020/12/06 11:11:03;;;;;;;;;;;7.80;95.10;;;;;;5094436;28;19962;-83
2020/12/06 11:13:31;;;;;;;;;;;7.70;94.50;;;;;;5095968;28;19966;-84
2020/12/06 11:16:02;;;;;;;;;;;7.70;94.10;;;;;;5113989;28;19911;-82
2020/12/06 11:18:38;;;;;;;;;;;7.60;94.30;;;;;;5096310;28;19918;-82
2020/12/06 11:21:21;;;;;;;;;;;7.50;94.40;;;;;;5112383;28;19961;-82
2020/12/06 11:23:47;;;;;;;;;;;7.40;94.60;;;;;;5107528;28;20356;-83
2020/12/06 11:26:36;;;;;;;;;;;7.30;94.80;;;;;;5092960;28;19965;-83
2020/12/06 11:29:02;;;;;;;;;;;7.20;95.00;;;;;;5094077;28;19922;-82
2020/12/06 11:31:38;;;;;;;;;;;7.10;95.20;;;;;;5114241;28;20280;-82
2020/12/06 11:34:09;;;;;;;;;;;7.00;95.40;;;;;;5092172;28;19908;-83
2020/12/06 11:36:40;;;;;;;;;;;6.90;95.60;;;;;;5098376;28;20045;-83
2020/12/06 11:39:12;;;;;;;;;;;6.90;95.70;;;;;;5100054;28;20377;-83
2020/12/06 11:41:54;;;;;;;;;;;6.70;95.80;;;;;;5071010;28;19908;-83
2020/12/06 11:44:29;;;;;;;;;;;6.70;95.90;;;;;;5058864;28;19919;-83
2020/12/06 11:47:04;;;;;;;;;;;6.60;96.00;;;;;;5055078;28;20381;-83
2020/12/06 11:49:36;;;;;;;;;;;6.50;96.10;;;;;;5057455;28;19924;-83
2020/12/06 11:52:10;;;;;;;;;;;6.40;96.20;;;;;;5058243;28;19908;-83
2020/12/06 11:54:42;;;;;;;;;;;6.40;96.50;;;;;;5058374;28;19920;-83
2020/12/06 11:57:31;;;;;;;;;;;;;;;;;;;;;
2020/12/06 12:00:00;;;;;;;;;;;6.30;97.00;;;;;;5075085;28;19908;-84
2020/12/06 12:02:28;;;;;;;;;;;6.20;97.00;;;;;;5058059;28;19913;-83
2020/12/06 12:05:04;;;;;;;;;;;6.10;97.30;;;;;;5074581;28;19916;-83
2020/12/06 12:07:31;;;;;;;;;;;6.00;97.50;;;;;;5074904;28;19960;-83
2020/12/06 12:10:03;;;;;;;;;;;6.00;97.70;;;;;;5058000;28;20297;-82
2020/12/06 12:12:32;;;;;;;;;;;6.00;97.90;;;;;;5057410;28;20015;-82
2020/12/06 12:15:00;;;;;;;;;;;6.00;98.20;;;;;;5056806;28;19920;-83
2020/12/06 12:17:28;;;;;;;;;;;6.00;98.40;;;;;;5059621;28;19920;-82
2020/12/06 12:19:59;;;;;;;;;;;6.00;98.60;;;;;;5082473;28;19915;-83
2020/12/06 12:22:28;;;;;;;;;;;6.00;98.70;;;;;;5086792;28;19912;-83
2020/12/06 12:24:56;;;;;;;;;;;6.00;98.90;;;;;;5086052;28;19908;-83
2020/12/06 12:27:28;;;;;;;;;;;6.00;99.10;;;;;;5086243;28;19912;-83
2020/12/06 12:30:19;;;;;;;;;;;6.00;99.20;;;;;;5082685;28;19912;-82
2020/12/06 12:32:47;;;;;;;;;;;6.00;99.50;;;;;;5084739;28;19912;-83
2020/12/06 12:35:15;;;;;;;;;;;6.00;99.70;;;;;;5086552;28;20281;-83
2020/12/06 12:37:48;;;;;;;;;;;6.00;99.80;;;;;;5076485;28;20254;-82
2020/12/06 12:40:22;;;;;;;;;;;6.10;99.90;;;;;;5092415;28;19909;-83
2020/12/06 12:42:50;;;;;;;;;;;6.00;99.90;;;;;;5076346;28;20250;-84
2020/12/06 12:45:36;;;;;;;;;;;6.10;99.90;;;;;;5087631;28;19912;-83
2020/12/06 12:48:12;;;;;;;;;;;6.10;99.90;;;;;;5087554;28;19917;-83
2020/12/06 12:50:38;;;;;;;;;;;6.10;99.90;;;;;;5084408;28;20273;-83
2020/12/06 12:53:39;;;;;;;;;;;6.20;99.90;;;;;;5076335;28;19918;-82
2020/12/06 12:56:18;;;;;;;;;;;6.20;99.90;;;;;;5077848;28;20422;-84
2020/12/06 12:58:49;;;;;;;;;;;6.30;99.90;;;;;;5075320;28;19909;-82
2020/12/06 13:01:14;;;;;;;;;;;6.30;99.90;;;;;;5075909;28;19979;-82
2020/12/06 13:03:53;;;;;;;;;;;6.30;99.90;;;;;;5074452;28;19909;-83
2020/12/06 13:09:29;;;;;;;;;;;6.20;99.90;;;;;;5096441;28;20327;-83
2020/12/06 13:12:05;;;;;;;;;;;6.20;99.90;;;;;;5094987;28;19969;-83
2020/12/06 13:14:41;;;;;;;;;;;6.20;99.90;;;;;;5094384;28;19924;-87
2020/12/06 13:17:13;;;;;;;;;;;6.20;99.90;;;;;;5095701;28;20364;-83
2020/12/06 13:19:50;;;;;;;;;;;6.20;99.90;;;;;;5094087;28;19977;-84
2020/12/06 13:22:32;;;;;;;;;;;6.20;99.90;;;;;;5095760;28;19952;-83
2020/12/06 13:25:06;;;;;;;;;;;6.20;99.90;;;;;;5095819;28;19908;-83
2020/12/06 13:27:35;;;;;;;;;;;6.20;99.90;;;;;;5094144;28;20292;-83
2020/12/06 13:30:00;;;;;;;;;;;6.20;99.90;;;;;;5094493;28;19915;-83
2020/12/06 13:32:29;;;;;;;;;;;6.10;99.90;;;;;;5094197;28;20377;-83
2020/12/06 13:35:00;;;;;;;;;;;6.10;99.90;;;;;;5094582;28;19915;-83
2020/12/06 13:37:26;;;;;;;;;;;6.00;99.90;;;;;;5095475;28;19919;-83
2020/12/06 13:39:57;;;;;;;;;;;6.00;99.90;;;;;;5077044;28;19912;-83
2020/12/06 13:42:27;;;;;;;;;;;5.90;99.90;;;;;;5074456;28;19912;-83
2020/12/06 13:45:02;;;;;;;;;;;5.90;99.90;;;;;;5079998;28;20448;-82
2020/12/06 13:47:38;;;;;;;;;;;5.90;99.90;;;;;;5094534;28;19920;-82
2020/12/06 13:50:06;;;;;;;;;;;5.90;99.90;;;;;;5095270;28;19908;-82
2020/12/06 13:52:38;;;;;;;;;;;5.80;99.90;;;;;;5093541;28;20011;-83
2020/12/06 13:55:11;;;;;;;;;;;5.80;99.90;;;;;;5071959;28;19946;-81
2020/12/06 13:57:46;;;;;;;;;;;5.80;99.90;;;;;;5055961;28;19909;-82
2020/12/06 14:00:17;;;;;;;;;;;5.70;99.90;;;;;;5052867;28;19955;-82
2020/12/06 14:02:47;;;;;;;;;;;5.70;99.90;;;;;;5050637;28;19959;-83
2020/12/06 14:05:12;;;;;;;;;;;5.60;99.90;;;;;;5046119;28;19913;-82
2020/12/06 14:07:41;;;;;;;;;;;5.60;99.90;;;;;;5047567;28;19920;-82
2020/12/06 14:10:09;;;;;;;;;;;5.50;99.90;;;;;;5063236;28;19959;-82
2020/12/06 14:12:40;;;;;;;;;;;5.50;99.90;;;;;;5062537;28;20492;-82
2020/12/06 14:15:06;;;;;;;;;;;5.40;99.90;;;;;;5052430;28;19994;-83
2020/12/06 14:17:54;;;;;;;;;;;5.40;99.90;;;;;;5047840;28;19913;-83
2020/12/06 14:20:25;;;;;;;;;;;5.30;99.90;;;;;;5029815;28;19916;-83
2020/12/06 14:22:56;;;;;;;;;;;5.30;99.90;;;;;;5031597;28;19948;-82
2020/12/06 14:25:32;;;;;;;;;;;5.20;99.90;;;;;;5060828;28;19912;-83
2020/12/06 14:28:05;;;;;;;;;;;5.20;99.90;;;;;;5092166;28;19969;-82
2020/12/06 14:30:35;;;;;;;;;;;5.10;99.90;;;;;;5094043;28;19908;-83
2020/12/06 14:33:11;;;;;;;;;;;5.10;99.90;;;;;;5093868;28;20365;-83
2020/12/06 14:35:39;;;;;;;;;;;5.10;99.90;;;;;;5090115;28;19912;-84
2020/12/06 14:38:26;;;;;;;;;;;5.10;99.90;;;;;;5093609;28;19912;-83
2020/12/06 14:41:04;;;;;;;;;;;5.10;99.90;;;;;;5092837;28;19909;-83
2020/12/06 14:43:32;;;;;;;;;;;5.00;99.90;;;;;;5094174;28;19998;-83
2020/12/06 14:46:06;;;;;;;;;;;5.00;99.90;;;;;;5093111;28;19915;-83
2020/12/06 14:48:32;;;;;;;;;;;5.00;99.90;;;;;;5093923;28;19920;-84
2020/12/06 14:51:09;;;;;;;;;;;5.00;99.90;;;;;;5089392;28;19920;-83
2020/12/06 14:53:49;;;;;;;;;;;5.00;99.90;;;;;;5092873;28;19955;-82
2020/12/06 14:56:18;;;;;;;;;;;4.90;99.90;;;;;;5092793;28;19908;-83
2020/12/06 14:58:57;;;;;;;;;;;4.90;99.90;;;;;;5092036;28;19912;-83
2020/12/06 15:01:24;;;;;;;;;;;4.90;99.90;;;;;;5073754;28;20326;-84
2020/12/06 15:03:52;;;;;;;;;;;4.90;99.90;;;;;;5093813;28;19957;-81
2020/12/06 15:06:25;;;;;;;;;;;4.90;99.90;;;;;;5093690;28;20319;-82
2020/12/06 15:09:07;;;;;;;;;;;4.80;99.90;;;;;;5086685;28;19921;-83
2020/12/06 15:11:39;;;;;;;;;;;4.80;99.90;;;;;;5052980;28;19915;-83